sensor_id;sensor_type;location;lat;lon;timestamp;temperature;humidity
42743;DHT22;28397;44.552;-0.848;2024-02-21T00:01:42;8.40;99.90
42743;DHT22;28397;44.552;-0.848;2024-02-21T00:04:08;8.40;99.90
42743;DHT22;28397;44.552;-0.848;2024-02-21T00:06:34;8.40;99.90
42743;DHT22;28397;44.552;-0.848;2024-02-21T00:08:59;8.40;99.90
42743;DHT22;28397;44.552;-0.848;2024-02-21T00:11:25;8.40;99.90
42743;DHT22;28397;44.552;-0.848;2024-02-21T00:13:50;8.50;99.90
42743;DHT22;28397;44.552;-0.848;2024-02-21T00:16:16;8.80;99.90
42743;DHT22;28397;44.552;-0.848;2024-02-21T00:18:43;8.90;99.90
42743;DHT22;28397;44.552;-0.848;2024-02-21T00:21:08;8.90;99.90
42743;DHT22;28397;44.552;-0.848;2024-02-21T00:23:34;9.10;99.90
42743;DHT22;28397;44.552;-0.848;2024-02-21T00:26:00;9.00;99.90
42743;DHT22;28397;44.552;-0.848;2024-02-21T00:28:25;9.20;99.90
42743;DHT22;28397;44.552;-0.848;2024-02-21T00:30:51;9.20;99.90
42743;DHT22;28397;44.552;-0.848;2024-02-21T00:33:19;9.20;99.90
42743;DHT22;28397;44.552;-0.848;2024-02-21T00:35:44;9.10;99.90
42743;DHT22;28397;44.552;-0.848;2024-02-21T00:38:10;9.00;99.90
42743;DHT22;28397;44.552;-0.848;2024-02-21T00:40:36;9.00;99.90
42743;DHT22;28397;44.552;-0.848;2024-02-21T00:43:02;8.80;99.90
42743;DHT22;28397;44.552;-0.848;2024-02-21T00:45:28;8.80;99.90
42743;DHT22;28397;44.552;-0.848;2024-02-21T00:47:53;8.70;99.90
42743;DHT22;28397;44.552;-0.848;2024-02-21T00:50:19;8.70;99.90
42743;DHT22;28397;44.552;-0.848;2024-02-21T00:52:45;8.60;99.90
42743;DHT22;28397;44.552;-0.848;2024-02-21T00:55:10;8.60;99.90
42743;DHT22;28397;44.552;-0.848;2024-02-21T00:57:36;8.50;99.90
42743;DHT22;28397;44.552;-0.848;2024-02-21T01:00:03;8.50;99.90
42743;DHT22;28397;44.552;-0.848;2024-02-21T01:02:29;8.50;99.90
42743;DHT22;28397;44.552;-0.848;2024-02-21T01:04:57;8.50;99.90
42743;DHT22;28397;44.552;-0.848;2024-02-21T01:07:23;8.40;99.90
42743;DHT22;28397;44.552;-0.848;2024-02-21T01:09:48;8.40;99.90
42743;DHT22;28397;44.552;-0.848;2024-02-21T01:12:16;8.30;99.90
42743;DHT22;28397;44.552;-0.848;2024-02-21T01:14:42;8.20;99.90
42743;DHT22;28397;44.552;-0.848;2024-02-21T01:17:08;8.20;99.90
42743;DHT22;28397;44.552;-0.848;2024-02-21T01:19:34;8.20;99.90
42743;DHT22;28397;44.552;-0.848;2024-02-21T01:21:59;8.10;99.90
42743;DHT22;28397;44.552;-0.848;2024-02-21T01:24:25;8.10;99.90
42743;DHT22;28397;44.552;-0.848;2024-02-21T01:26:51;8.00;99.90
42743;DHT22;28397;44.552;-0.848;2024-02-21T01:29:16;7.90;99.90
42743;DHT22;28397;44.552;-0.848;2024-02-21T01:31:42;7.80;99.90
42743;DHT22;28397;44.552;-0.848;2024-02-21T01:34:08;7.80;99.90
42743;DHT22;28397;44.552;-0.848;2024-02-21T01:36:34;7.70;99.90
42743;DHT22;28397;44.552;-0.848;2024-02-21T01:38:59;7.70;99.90
42743;DHT22;28397;44.552;-0.848;2024-02-21T01:41:25;7.70;99.90
42743;DHT22;28397;44.552;-0.848;2024-02-21T01:43:51;7.60;99.90
42743;DHT22;28397;44.552;-0.848;2024-02-21T01:46:16;7.60;99.90
42743;DHT22;28397;44.552;-0.848;2024-02-21T01:48:42;7.60;99.90
42743;DHT22;28397;44.552;-0.848;2024-02-21T01:51:08;7.50;99.90
42743;DHT22;28397;44.552;-0.848;2024-02-21T01:53:40;7.60;99.90
42743;DHT22;28397;44.552;-0.848;2024-02-21T01:56:08;7.50;99.90
42743;DHT22;28397;44.552;-0.848;2024-02-21T01:58:36;7.50;99.90
42743;DHT22;28397;44.552;-0.848;2024-02-21T02:01:03;7.50;99.90
42743;DHT22;28397;44.552;-0.848;2024-02-21T02:03:29;7.50;99.90
42743;DHT22;28397;44.552;-0.848;2024-02-21T02:05:55;7.40;99.90
42743;DHT22;28397;44.552;-0.848;2024-02-21T02:08:21;7.30;99.90
42743;DHT22;28397;44.552;-0.848;2024-02-21T02:10:48;7.40;99.90
42743;DHT22;28397;44.552;-0.848;2024-02-21T02:13:14;7.60;99.90
42743;DHT22;28397;44.552;-0.848;2024-02-21T02:15:44;7.80;99.90
42743;DHT22;28397;44.552;-0.848;2024-02-21T02:18:11;8.00;99.90
42743;DHT22;28397;44.552;-0.848;2024-02-21T02:20:37;8.10;99.90
42743;DHT22;28397;44.552;-0.848;2024-02-21T02:25:31;8.00;99.90
42743;DHT22;28397;44.552;-0.848;2024-02-21T02:27:57;8.20;99.90
42743;DHT22;28397;44.552;-0.848;2024-02-21T02:30:23;8.10;99.90
42743;DHT22;28397;44.552;-0.848;2024-02-21T02:32:48;8.00;99.90
42743;DHT22;28397;44.552;-0.848;2024-02-21T02:35:14;7.70;99.90
42743;DHT22;28397;44.552;-0.848;2024-02-21T02:37:39;7.60;99.90
42743;DHT22;28397;44.552;-0.848;2024-02-21T02:40:06;7.50;99.90
42743;DHT22;28397;44.552;-0.848;2024-02-21T02:42:32;7.40;99.90
42743;DHT22;28397;44.552;-0.848;2024-02-21T02:44:58;7.30;99.90
42743;DHT22;28397;44.552;-0.848;2024-02-21T02:47:23;7.30;99.90
42743;DHT22;28397;44.552;-0.848;2024-02-21T02:49:49;7.20;99.90
42743;DHT22;28397;44.552;-0.848;2024-02-21T02:52:17;7.30;99.90
42743;DHT22;28397;44.552;-0.848;2024-02-21T02:54:43;7.30;99.90
42743;DHT22;28397;44.552;-0.848;2024-02-21T02:57:09;7.20;99.90
42743;DHT22;28397;44.552;-0.848;2024-02-21T02:59:35;7.20;99.90
42743;DHT22;28397;44.552;-0.848;2024-02-21T03:02:01;7.20;99.90
42743;DHT22;28397;44.552;-0.848;2024-02-21T03:04:26;7.20;99.90
42743;DHT22;28397;44.552;-0.848;2024-02-21T03:06:52;7.20;99.90
42743;DHT22;28397;44.552;-0.848;2024-02-21T03:09:18;7.20;99.90
42743;DHT22;28397;44.552;-0.848;2024-02-21T03:11:44;7.30;99.90
42743;DHT22;28397;44.552;-0.848;2024-02-21T03:14:10;7.30;99.90
42743;DHT22;28397;44.552;-0.848;2024-02-21T03:16:36;7.30;99.90
42743;DHT22;28397;44.552;-0.848;2024-02-21T03:19:01;7.30;99.90
42743;DHT22;28397;44.552;-0.848;2024-02-21T03:21:27;7.20;99.90
42743;DHT22;28397;44.552;-0.848;2024-02-21T03:23:53;7.30;99.90
42743;DHT22;28397;44.552;-0.848;2024-02-21T03:26:18;7.20;99.90
42743;DHT22;28397;44.552;-0.848;2024-02-21T03:28:44;7.20;99.90
42743;DHT22;28397;44.552;-0.848;2024-02-21T03:31:12;7.20;99.90
42743;DHT22;28397;44.552;-0.848;2024-02-21T03:33:42;7.20;99.90
42743;DHT22;28397;44.552;-0.848;2024-02-21T03:36:15;7.20;99.90
42743;DHT22;28397;44.552;-0.848;2024-02-21T03:38:41;7.20;99.90
42743;DHT22;28397;44.552;-0.848;2024-02-21T03:41:06;7.20;99.90
42743;DHT22;28397;44.552;-0.848;2024-02-21T03:43:32;7.20;99.90
42743;DHT22;28397;44.552;-0.848;2024-02-21T03:45:58;7.10;99.90
42743;DHT22;28397;44.552;-0.848;2024-02-21T03:48:23;7.10;99.90
42743;DHT22;28397;44.552;-0.848;2024-02-21T03:50:49;7.00;99.90
42743;DHT22;28397;44.552;-0.848;2024-02-21T03:53:15;7.00;99.90
42743;DHT22;28397;44.552;-0.848;2024-02-21T03:55:40;7.00;99.90
42743;DHT22;28397;44.552;-0.848;2024-02-21T03:58:06;7.00;99.90
42743;DHT22;28397;44.552;-0.848;2024-02-21T04:00:31;6.90;99.90
42743;DHT22;28397;44.552;-0.848;2024-02-21T04:02:57;6.90;99.90
42743;DHT22;28397;44.552;-0.848;2024-02-21T04:05:22;6.90;99.90
42743;DHT22;28397;44.552;-0.848;2024-02-21T04:07:48;7.00;99.90
42743;DHT22;28397;44.552;-0.848;2024-02-21T04:10:14;7.00;99.90
42743;DHT22;28397;44.552;-0.848;2024-02-21T04:12:39;7.10;99.90
42743;DHT22;28397;44.552;-0.848;2024-02-21T04:15:05;7.20;99.90
42743;DHT22;28397;44.552;-0.848;2024-02-21T04:17:31;7.30;99.90
42743;DHT22;28397;44.552;-0.848;2024-02-21T04:20:03;7.40;99.90
42743;DHT22;28397;44.552;-0.848;2024-02-21T04:22:33;7.50;99.90
42743;DHT22;28397;44.552;-0.848;2024-02-21T04:25:02;7.60;99.90
42743;DHT22;28397;44.552;-0.848;2024-02-21T04:27:28;7.80;99.90
42743;DHT22;28397;44.552;-0.848;2024-02-21T04:29:54;7.90;99.90
42743;DHT22;28397;44.552;-0.848;2024-02-21T04:32:19;7.60;99.90
42743;DHT22;28397;44.552;-0.848;2024-02-21T04:34:45;7.40;99.90
42743;DHT22;28397;44.552;-0.848;2024-02-21T04:37:10;7.30;99.90
42743;DHT22;28397;44.552;-0.848;2024-02-21T04:39:36;7.20;99.90
42743;DHT22;28397;44.552;-0.848;2024-02-21T04:42:02;7.00;99.90
42743;DHT22;28397;44.552;-0.848;2024-02-21T04:44:27;7.00;99.90
42743;DHT22;28397;44.552;-0.848;2024-02-21T04:46:53;7.00;99.90
42743;DHT22;28397;44.552;-0.848;2024-02-21T04:49:19;6.90;99.90
42743;DHT22;28397;44.552;-0.848;2024-02-21T04:51:45;6.90;99.90
42743;DHT22;28397;44.552;-0.848;2024-02-21T04:54:11;6.90;99.90
42743;DHT22;28397;44.552;-0.848;2024-02-21T04:56:36;6.80;99.90
42743;DHT22;28397;44.552;-0.848;2024-02-21T04:59:02;6.90;99.90
42743;DHT22;28397;44.552;-0.848;2024-02-21T05:01:28;6.80;99.90
42743;DHT22;28397;44.552;-0.848;2024-02-21T05:03:54;6.80;99.90
42743;DHT22;28397;44.552;-0.848;2024-02-21T05:06:19;6.80;99.90
42743;DHT22;28397;44.552;-0.848;2024-02-21T05:08:45;6.80;99.90
42743;DHT22;28397;44.552;-0.848;2024-02-21T05:11:10;6.90;99.90
42743;DHT22;28397;44.552;-0.848;2024-02-21T05:13:36;6.80;99.90
42743;DHT22;28397;44.552;-0.848;2024-02-21T05:16:02;6.90;99.90
42743;DHT22;28397;44.552;-0.848;2024-02-21T05:18:28;6.80;99.90
42743;DHT22;28397;44.552;-0.848;2024-02-21T05:20:54;6.80;99.90
42743;DHT22;28397;44.552;-0.848;2024-02-21T05:23:19;6.70;99.90
42743;DHT22;28397;44.552;-0.848;2024-02-21T05:25:45;6.70;99.90
42743;DHT22;28397;44.552;-0.848;2024-02-21T05:28:11;6.70;99.90
42743;DHT22;28397;44.552;-0.848;2024-02-21T05:30:36;6.70;99.90
42743;DHT22;28397;44.552;-0.848;2024-02-21T05:33:05;6.60;99.90
42743;DHT22;28397;44.552;-0.848;2024-02-21T05:35:31;6.70;99.90
42743;DHT22;28397;44.552;-0.848;2024-02-21T05:37:57;6.60;99.90
42743;DHT22;28397;44.552;-0.848;2024-02-21T05:40:23;6.60;99.90
42743;DHT22;28397;44.552;-0.848;2024-02-21T05:42:49;6.50;99.90
42743;DHT22;28397;44.552;-0.848;2024-02-21T05:45:16;6.60;99.90
42743;DHT22;28397;44.552;-0.848;2024-02-21T05:47:42;6.60;99.90
42743;DHT22;28397;44.552;-0.848;2024-02-21T05:50:08;6.50;99.90
42743;DHT22;28397;44.552;-0.848;2024-02-21T05:52:34;6.40;99.90
42743;DHT22;28397;44.552;-0.848;2024-02-21T05:54:59;6.40;99.90
42743;DHT22;28397;44.552;-0.848;2024-02-21T05:57:25;6.50;99.90
42743;DHT22;28397;44.552;-0.848;2024-02-21T05:59:51;6.50;99.90
42743;DHT22;28397;44.552;-0.848;2024-02-21T06:02:16;6.50;99.90
42743;DHT22;28397;44.552;-0.848;2024-02-21T06:04:42;6.50;99.90
42743;DHT22;28397;44.552;-0.848;2024-02-21T06:07:08;6.50;99.90
42743;DHT22;28397;44.552;-0.848;2024-02-21T06:09:34;6.40;99.90
42743;DHT22;28397;44.552;-0.848;2024-02-21T06:11:59;6.40;99.90
42743;DHT22;28397;44.552;-0.848;2024-02-21T06:14:25;6.40;99.90
42743;DHT22;28397;44.552;-0.848;2024-02-21T06:16:51;6.60;99.90
42743;DHT22;28397;44.552;-0.848;2024-02-21T06:19:16;7.00;99.90
42743;DHT22;28397;44.552;-0.848;2024-02-21T06:21:42;7.10;99.90
42743;DHT22;28397;44.552;-0.848;2024-02-21T06:24:07;7.20;99.90
42743;DHT22;28397;44.552;-0.848;2024-02-21T06:26:33;7.30;99.90
42743;DHT22;28397;44.552;-0.848;2024-02-21T06:28:59;7.30;99.90
42743;DHT22;28397;44.552;-0.848;2024-02-21T06:31:27;7.40;99.90
42743;DHT22;28397;44.552;-0.848;2024-02-21T06:33:54;7.50;99.90
42743;DHT22;28397;44.552;-0.848;2024-02-21T06:36:19;7.40;99.90
42743;DHT22;28397;44.552;-0.848;2024-02-21T06:38:45;7.20;99.90
42743;DHT22;28397;44.552;-0.848;2024-02-21T06:41:17;7.00;99.90
42743;DHT22;28397;44.552;-0.848;2024-02-21T06:43:44;6.90;99.90
42743;DHT22;28397;44.552;-0.848;2024-02-21T06:46:11;6.90;99.90
42743;DHT22;28397;44.552;-0.848;2024-02-21T06:48:37;6.80;99.90
42743;DHT22;28397;44.552;-0.848;2024-02-21T06:51:03;6.80;99.90
42743;DHT22;28397;44.552;-0.848;2024-02-21T06:53:29;6.80;99.90
42743;DHT22;28397;44.552;-0.848;2024-02-21T06:55:55;6.80;99.90
42743;DHT22;28397;44.552;-0.848;2024-02-21T06:58:20;6.80;99.90
42743;DHT22;28397;44.552;-0.848;2024-02-21T07:00:46;6.70;99.90
42743;DHT22;28397;44.552;-0.848;2024-02-21T07:03:11;6.70;99.90
42743;DHT22;28397;44.552;-0.848;2024-02-21T07:05:37;6.70;99.90
42743;DHT22;28397;44.552;-0.848;2024-02-21T07:08:03;6.70;99.90
42743;DHT22;28397;44.552;-0.848;2024-02-21T07:10:29;6.60;99.90
42743;DHT22;28397;44.552;-0.848;2024-02-21T07:12:55;6.60;99.90
42743;DHT22;28397;44.552;-0.848;2024-02-21T07:15:21;6.50;99.90
42743;DHT22;28397;44.552;-0.848;2024-02-21T07:17:46;6.50;99.90
42743;DHT22;28397;44.552;-0.848;2024-02-21T07:20:12;6.50;99.90
42743;DHT22;28397;44.552;-0.848;2024-02-21T07:22:38;6.60;99.90
42743;DHT22;28397;44.552;-0.848;2024-02-21T07:25:04;6.60;99.90
42743;DHT22;28397;44.552;-0.848;2024-02-21T07:27:29;6.60;99.90
42743;DHT22;28397;44.552;-0.848;2024-02-21T07:29:57;6.60;99.90
42743;DHT22;28397;44.552;-0.848;2024-02-21T07:32:23;6.60;99.90
42743;DHT22;28397;44.552;-0.848;2024-02-21T07:34:48;6.60;99.90
42743;DHT22;28397;44.552;-0.848;2024-02-21T07:37:14;6.60;99.90
42743;DHT22;28397;44.552;-0.848;2024-02-21T07:39:40;6.60;99.90
42743;DHT22;28397;44.552;-0.848;2024-02-21T07:42:06;6.70;99.90
42743;DHT22;28397;44.552;-0.848;2024-02-21T07:44:32;6.70;99.90
42743;DHT22;28397;44.552;-0.848;2024-02-21T07:46:58;6.80;99.90
42743;DHT22;28397;44.552;-0.848;2024-02-21T07:49:24;6.80;99.90
42743;DHT22;28397;44.552;-0.848;2024-02-21T07:51:50;6.80;99.90
42743;DHT22;28397;44.552;-0.848;2024-02-21T07:54:15;6.90;99.90
42743;DHT22;28397;44.552;-0.848;2024-02-21T07:56:41;6.90;99.90
42743;DHT22;28397;44.552;-0.848;2024-02-21T07:59:07;6.80;99.90
42743;DHT22;28397;44.552;-0.848;2024-02-21T08:01:33;6.90;99.90
42743;DHT22;28397;44.552;-0.848;2024-02-21T08:03:59;6.90;99.90
42743;DHT22;28397;44.552;-0.848;2024-02-21T08:06:24;6.90;99.90
42743;DHT22;28397;44.552;-0.848;2024-02-21T08:08:50;7.00;99.90
42743;DHT22;28397;44.552;-0.848;2024-02-21T08:11:16;7.10;99.90
42743;DHT22;28397;44.552;-0.848;2024-02-21T08:13:41;7.10;99.90
42743;DHT22;28397;44.552;-0.848;2024-02-21T08:16:07;7.20;99.90
42743;DHT22;28397;44.552;-0.848;2024-02-21T08:18:33;7.20;99.90
42743;DHT22;28397;44.552;-0.848;2024-02-21T08:21:03;7.30;99.90
42743;DHT22;28397;44.552;-0.848;2024-02-21T08:23:28;7.90;99.90
42743;DHT22;28397;44.552;-0.848;2024-02-21T08:25:54;7.90;99.90
42743;DHT22;28397;44.552;-0.848;2024-02-21T08:28:21;8.00;99.90
42743;DHT22;28397;44.552;-0.848;2024-02-21T08:30:47;8.20;99.90
42743;DHT22;28397;44.552;-0.848;2024-02-21T08:33:15;8.30;99.90
42743;DHT22;28397;44.552;-0.848;2024-02-21T08:35:42;8.40;99.90
42743;DHT22;28397;44.552;-0.848;2024-02-21T08:38:08;8.50;99.90
42743;DHT22;28397;44.552;-0.848;2024-02-21T08:40:33;8.50;99.90
42743;DHT22;28397;44.552;-0.848;2024-02-21T08:43:00;8.50;99.90
42743;DHT22;28397;44.552;-0.848;2024-02-21T08:45:26;8.30;99.90
42743;DHT22;28397;44.552;-0.848;2024-02-21T08:47:52;8.20;99.90
42743;DHT22;28397;44.552;-0.848;2024-02-21T08:50:17;8.20;99.90
42743;DHT22;28397;44.552;-0.848;2024-02-21T08:52:43;8.20;99.90
42743;DHT22;28397;44.552;-0.848;2024-02-21T08:55:09;8.20;99.90
42743;DHT22;28397;44.552;-0.848;2024-02-21T08:57:34;8.30;99.90
42743;DHT22;28397;44.552;-0.848;2024-02-21T09:00:06;8.30;99.90
42743;DHT22;28397;44.552;-0.848;2024-02-21T09:02:40;8.40;99.90
42743;DHT22;28397;44.552;-0.848;2024-02-21T09:05:06;8.40;99.90
42743;DHT22;28397;44.552;-0.848;2024-02-21T09:07:32;8.50;99.90
42743;DHT22;28397;44.552;-0.848;2024-02-21T09:09:58;8.50;99.90
42743;DHT22;28397;44.552;-0.848;2024-02-21T09:12:23;8.50;99.90
42743;DHT22;28397;44.552;-0.848;2024-02-21T09:14:49;8.60;99.90
42743;DHT22;28397;44.552;-0.848;2024-02-21T09:17:16;8.80;99.90
42743;DHT22;28397;44.552;-0.848;2024-02-21T09:19:43;8.80;99.90
42743;DHT22;28397;44.552;-0.848;2024-02-21T09:22:09;8.90;99.90
42743;DHT22;28397;44.552;-0.848;2024-02-21T09:24:34;9.00;99.90
42743;DHT22;28397;44.552;-0.848;2024-02-21T09:27:00;9.10;99.90
42743;DHT22;28397;44.552;-0.848;2024-02-21T09:29:26;9.10;99.90
42743;DHT22;28397;44.552;-0.848;2024-02-21T09:31:51;9.20;99.90
42743;DHT22;28397;44.552;-0.848;2024-02-21T09:34:17;9.30;99.90
42743;DHT22;28397;44.552;-0.848;2024-02-21T09:36:43;9.40;99.90
42743;DHT22;28397;44.552;-0.848;2024-02-21T09:39:10;9.40;99.90
42743;DHT22;28397;44.552;-0.848;2024-02-21T09:41:45;9.50;99.90
42743;DHT22;28397;44.552;-0.848;2024-02-21T09:44:13;9.60;99.90
42743;DHT22;28397;44.552;-0.848;2024-02-21T09:49:35;9.80;99.90
42743;DHT22;28397;44.552;-0.848;2024-02-21T09:52:07;9.90;99.90
42743;DHT22;28397;44.552;-0.848;2024-02-21T09:54:35;10.00;99.90
42743;DHT22;28397;44.552;-0.848;2024-02-21T09:57:05;10.00;99.90
42743;DHT22;28397;44.552;-0.848;2024-02-21T09:59:32;10.10;99.90
42743;DHT22;28397;44.552;-0.848;2024-02-21T10:01:58;10.20;99.90
42743;DHT22;28397;44.552;-0.848;2024-02-21T10:04:26;10.30;99.90
42743;DHT22;28397;44.552;-0.848;2024-02-21T10:06:53;10.40;99.90
42743;DHT22;28397;44.552;-0.848;2024-02-21T10:09:25;10.50;99.90
42743;DHT22;28397;44.552;-0.848;2024-02-21T10:11:55;10.60;99.90
42743;DHT22;28397;44.552;-0.848;2024-02-21T10:14:21;10.70;99.90
42743;DHT22;28397;44.552;-0.848;2024-02-21T10:16:57;10.80;99.90
42743;DHT22;28397;44.552;-0.848;2024-02-21T10:19:25;10.80;99.90
42743;DHT22;28397;44.552;-0.848;2024-02-21T10:22:05;10.90;99.90
42743;DHT22;28397;44.552;-0.848;2024-02-21T10:24:33;11.40;99.90
42743;DHT22;28397;44.552;-0.848;2024-02-21T10:27:06;11.70;99.90
42743;DHT22;28397;44.552;-0.848;2024-02-21T10:29:36;11.80;99.90
42743;DHT22;28397;44.552;-0.848;2024-02-21T10:32:09;11.90;99.90
42743;DHT22;28397;44.552;-0.848;2024-02-21T10:34:37;12.10;99.90
42743;DHT22;28397;44.552;-0.848;2024-02-21T10:37:07;12.30;99.90
42743;DHT22;28397;44.552;-0.848;2024-02-21T10:39:34;12.30;99.90
42743;DHT22;28397;44.552;-0.848;2024-02-21T10:42:01;12.40;99.90
42743;DHT22;28397;44.552;-0.848;2024-02-21T10:44:32;12.40;99.90
42743;DHT22;28397;44.552;-0.848;2024-02-21T10:46:58;12.40;99.90
42743;DHT22;28397;44.552;-0.848;2024-02-21T10:49:26;12.30;99.90
42743;DHT22;28397;44.552;-0.848;2024-02-21T10:55:10;12.20;99.90
42743;DHT22;28397;44.552;-0.848;2024-02-21T10:57:37;12.10;99.90
42743;DHT22;28397;44.552;-0.848;2024-02-21T11:00:04;12.10;99.90
42743;DHT22;28397;44.552;-0.848;2024-02-21T11:02:34;12.10;99.90
42743;DHT22;28397;44.552;-0.848;2024-02-21T11:05:01;12.30;99.90
42743;DHT22;28397;44.552;-0.848;2024-02-21T11:07:29;12.30;99.90
42743;DHT22;28397;44.552;-0.848;2024-02-21T11:09:57;12.40;99.90
42743;DHT22;28397;44.552;-0.848;2024-02-21T11:12:25;12.40;99.90
42743;DHT22;28397;44.552;-0.848;2024-02-21T11:14:51;12.50;99.90
42743;DHT22;28397;44.552;-0.848;2024-02-21T11:17:18;12.60;99.90
42743;DHT22;28397;44.552;-0.848;2024-02-21T11:19:44;12.70;99.90
42743;DHT22;28397;44.552;-0.848;2024-02-21T11:22:20;12.80;99.90
42743;DHT22;28397;44.552;-0.848;2024-02-21T11:24:50;12.80;99.90
42743;DHT22;28397;44.552;-0.848;2024-02-21T11:27:18;12.90;99.90
42743;DHT22;28397;44.552;-0.848;2024-02-21T11:29:54;12.90;99.90
42743;DHT22;28397;44.552;-0.848;2024-02-21T11:32:20;12.90;99.90
42743;DHT22;28397;44.552;-0.848;2024-02-21T11:35:05;12.90;99.90
42743;DHT22;28397;44.552;-0.848;2024-02-21T11:37:31;13.00;99.90
42743;DHT22;28397;44.552;-0.848;2024-02-21T11:40:03;13.00;99.90
42743;DHT22;28397;44.552;-0.848;2024-02-21T11:42:29;13.10;99.90
42743;DHT22;28397;44.552;-0.848;2024-02-21T11:44:56;13.10;99.90
42743;DHT22;28397;44.552;-0.848;2024-02-21T11:47:25;13.10;99.90
42743;DHT22;28397;44.552;-0.848;2024-02-21T11:49:51;13.20;99.90
42743;DHT22;28397;44.552;-0.848;2024-02-21T11:52:21;13.20;99.90
42743;DHT22;28397;44.552;-0.848;2024-02-21T11:54:50;13.40;99.90
42743;DHT22;28397;44.552;-0.848;2024-02-21T11:57:17;13.50;99.90
42743;DHT22;28397;44.552;-0.848;2024-02-21T11:59:44;13.60;99.90
42743;DHT22;28397;44.552;-0.848;2024-02-21T12:02:11;13.60;99.90
42743;DHT22;28397;44.552;-0.848;2024-02-21T12:04:37;13.80;99.90
42743;DHT22;28397;44.552;-0.848;2024-02-21T12:07:02;13.90;99.90
42743;DHT22;28397;44.552;-0.848;2024-02-21T12:09:31;13.90;99.90
42743;DHT22;28397;44.552;-0.848;2024-02-21T12:12:07;14.10;99.90
42743;DHT22;28397;44.552;-0.848;2024-02-21T12:14:34;14.30;99.90
42743;DHT22;28397;44.552;-0.848;2024-02-21T12:17:01;14.60;99.90
42743;DHT22;28397;44.552;-0.848;2024-02-21T12:19:30;14.80;99.90
42743;DHT22;28397;44.552;-0.848;2024-02-21T12:21:58;14.90;99.90
42743;DHT22;28397;44.552;-0.848;2024-02-21T12:24:25;15.00;99.90
42743;DHT22;28397;44.552;-0.848;2024-02-21T12:26:52;14.90;99.90
42743;DHT22;28397;44.552;-0.848;2024-02-21T12:29:22;15.00;99.90
42743;DHT22;28397;44.552;-0.848;2024-02-21T12:31:50;15.00;99.90
42743;DHT22;28397;44.552;-0.848;2024-02-21T12:34:16;14.90;99.90
42743;DHT22;28397;44.552;-0.848;2024-02-21T12:36:43;14.90;99.90
42743;DHT22;28397;44.552;-0.848;2024-02-21T12:39:09;14.80;99.90
42743;DHT22;28397;44.552;-0.848;2024-02-21T12:41:36;14.70;99.90
42743;DHT22;28397;44.552;-0.848;2024-02-21T12:44:05;14.60;99.90
42743;DHT22;28397;44.552;-0.848;2024-02-21T12:46:34;14.50;99.90
42743;DHT22;28397;44.552;-0.848;2024-02-21T12:49:00;14.50;99.90
42743;DHT22;28397;44.552;-0.848;2024-02-21T12:51:26;14.50;99.90
42743;DHT22;28397;44.552;-0.848;2024-02-21T12:53:52;14.50;99.90
42743;DHT22;28397;44.552;-0.848;2024-02-21T12:56:17;14.50;99.90
42743;DHT22;28397;44.552;-0.848;2024-02-21T12:58:43;14.60;99.90
42743;DHT22;28397;44.552;-0.848;2024-02-21T13:01:10;14.60;99.90
42743;DHT22;28397;44.552;-0.848;2024-02-21T13:03:36;14.60;99.90
42743;DHT22;28397;44.552;-0.848;2024-02-21T13:06:01;14.50;99.90
42743;DHT22;28397;44.552;-0.848;2024-02-21T13:08:27;14.50;99.90
42743;DHT22;28397;44.552;-0.848;2024-02-21T13:10:53;14.50;99.90
42743;DHT22;28397;44.552;-0.848;2024-02-21T13:13:19;14.40;99.90
42743;DHT22;28397;44.552;-0.848;2024-02-21T13:15:44;14.40;99.90
42743;DHT22;28397;44.552;-0.848;2024-02-21T13:18:10;14.40;99.90
42743;DHT22;28397;44.552;-0.848;2024-02-21T13:20:36;14.40;99.90
42743;DHT22;28397;44.552;-0.848;2024-02-21T13:23:02;14.30;99.90
42743;DHT22;28397;44.552;-0.848;2024-02-21T13:25:28;14.30;99.90
42743;DHT22;28397;44.552;-0.848;2024-02-21T13:27:54;14.30;99.90
42743;DHT22;28397;44.552;-0.848;2024-02-21T13:30:21;14.30;99.90
42743;DHT22;28397;44.552;-0.848;2024-02-21T13:32:47;14.30;99.90
42743;DHT22;28397;44.552;-0.848;2024-02-21T13:35:13;14.40;99.90
42743;DHT22;28397;44.552;-0.848;2024-02-21T13:37:39;14.40;99.90
42743;DHT22;28397;44.552;-0.848;2024-02-21T13:40:05;14.40;99.90
42743;DHT22;28397;44.552;-0.848;2024-02-21T13:42:31;14.60;99.90
42743;DHT22;28397;44.552;-0.848;2024-02-21T13:44:57;14.60;99.90
42743;DHT22;28397;44.552;-0.848;2024-02-21T13:47:23;14.70;99.90
42743;DHT22;28397;44.552;-0.848;2024-02-21T13:49:48;14.80;99.90
42743;DHT22;28397;44.552;-0.848;2024-02-21T13:52:15;15.00;99.90
42743;DHT22;28397;44.552;-0.848;2024-02-21T13:54:41;15.20;99.90
42743;DHT22;28397;44.552;-0.848;2024-02-21T13:57:07;15.40;99.90
42743;DHT22;28397;44.552;-0.848;2024-02-21T13:59:33;15.50;99.90
42743;DHT22;28397;44.552;-0.848;2024-02-21T14:02:00;15.90;99.90
42743;DHT22;28397;44.552;-0.848;2024-02-21T14:04:25;16.10;99.90
42743;DHT22;28397;44.552;-0.848;2024-02-21T14:06:51;16.30;99.90
42743;DHT22;28397;44.552;-0.848;2024-02-21T14:09:19;16.40;99.90
42743;DHT22;28397;44.552;-0.848;2024-02-21T14:11:44;16.40;99.90
42743;DHT22;28397;44.552;-0.848;2024-02-21T14:14:11;16.30;99.90
42743;DHT22;28397;44.552;-0.848;2024-02-21T14:16:36;16.20;99.90
42743;DHT22;28397;44.552;-0.848;2024-02-21T14:19:02;16.20;99.90
42743;DHT22;28397;44.552;-0.848;2024-02-21T14:21:28;16.30;99.90
42743;DHT22;28397;44.552;-0.848;2024-02-21T14:23:54;16.20;99.90
42743;DHT22;28397;44.552;-0.848;2024-02-21T14:26:20;16.10;99.90
42743;DHT22;28397;44.552;-0.848;2024-02-21T14:28:47;16.00;99.90
42743;DHT22;28397;44.552;-0.848;2024-02-21T14:31:12;15.80;99.90
42743;DHT22;28397;44.552;-0.848;2024-02-21T14:33:38;15.70;99.90
42743;DHT22;28397;44.552;-0.848;2024-02-21T14:36:04;15.60;99.90
42743;DHT22;28397;44.552;-0.848;2024-02-21T14:38:30;15.50;99.90
42743;DHT22;28397;44.552;-0.848;2024-02-21T14:40:56;15.50;99.90
42743;DHT22;28397;44.552;-0.848;2024-02-21T14:43:22;15.40;99.90
42743;DHT22;28397;44.552;-0.848;2024-02-21T14:45:48;15.40;99.90
42743;DHT22;28397;44.552;-0.848;2024-02-21T14:48:14;15.30;99.90
42743;DHT22;28397;44.552;-0.848;2024-02-21T14:50:40;15.30;99.90
42743;DHT22;28397;44.552;-0.848;2024-02-21T14:53:06;15.30;99.90
42743;DHT22;28397;44.552;-0.848;2024-02-21T14:55:33;15.40;99.90
42743;DHT22;28397;44.552;-0.848;2024-02-21T14:57:59;15.30;99.90
42743;DHT22;28397;44.552;-0.848;2024-02-21T15:00:26;15.30;99.90
42743;DHT22;28397;44.552;-0.848;2024-02-21T15:02:58;15.30;99.90
42743;DHT22;28397;44.552;-0.848;2024-02-21T15:05:24;15.30;99.90
42743;DHT22;28397;44.552;-0.848;2024-02-21T15:07:50;15.30;99.90
42743;DHT22;28397;44.552;-0.848;2024-02-21T15:10:16;15.30;99.90
42743;DHT22;28397;44.552;-0.848;2024-02-21T15:12:45;15.30;99.90
42743;DHT22;28397;44.552;-0.848;2024-02-21T15:15:11;15.20;99.90
42743;DHT22;28397;44.552;-0.848;2024-02-21T15:17:36;15.20;99.90
42743;DHT22;28397;44.552;-0.848;2024-02-21T15:20:02;15.20;99.90
42743;DHT22;28397;44.552;-0.848;2024-02-21T15:22:30;15.10;99.90
42743;DHT22;28397;44.552;-0.848;2024-02-21T15:24:55;15.10;99.90
42743;DHT22;28397;44.552;-0.848;2024-02-21T15:27:21;15.10;99.90
42743;DHT22;28397;44.552;-0.848;2024-02-21T15:29:47;15.00;99.90